sensor_id;sensor_type;location;lat;lon;timestamp;P1;durP1;ratioP1;P2;durP2;ratioP2
44832;SDS011;30569;51.252;9.830;2022-12-11T05:02:07;22.33;;;12.77;;
44832;SDS011;30569;51.252;9.830;2022-12-11T05:04:33;22.87;;;13.20;;
44832;SDS011;30569;51.252;9.830;2022-12-11T05:06:59;21.20;;;13.00;;
44832;SDS011;30569;51.252;9.830;2022-12-11T05:09:25;20.10;;;11.47;;
44832;SDS011;30569;51.252;9.830;2022-12-11T05:11:51;19.70;;;11.43;;
44832;SDS011;30569;51.252;9.830;2022-12-11T05:14:17;22.00;;;11.33;;
44832;SDS011;30569;51.252;9.830;2022-12-11T05:16:43;20.07;;;11.20;;
44832;SDS011;30569;51.252;9.830;2022-12-11T05:19:08;17.63;;;10.27;;
44832;SDS011;30569;51.252;9.830;2022-12-11T05:21:34;19.03;;;10.87;;
44832;SDS011;30569;51.252;9.830;2022-12-11T05:24:00;18.90;;;10.60;;
44832;SDS011;30569;51.252;9.830;2022-12-11T05:26:26;19.57;;;10.70;;
44832;SDS011;30569;51.252;9.830;2022-12-11T05:28:53;18.60;;;11.30;;
44832;SDS011;30569;51.252;9.830;2022-12-11T05:31:23;20.37;;;11.10;;
44832;SDS011;30569;51.252;9.830;2022-12-11T05:33:50;19.23;;;11.13;;
44832;SDS011;30569;51.252;9.830;2022-12-11T05:36:18;21.53;;;12.00;;
44832;SDS011;30569;51.252;9.830;2022-12-11T05:38:55;18.17;;;11.70;;
44832;SDS011;30569;51.252;9.830;2022-12-11T05:41:23;21.20;;;12.27;;
44832;SDS011;30569;51.252;9.830;2022-12-11T05:43:49;21.10;;;11.80;;
44832;SDS011;30569;51.252;9.830;2022-12-11T05:46:26;19.60;;;12.17;;
44832;SDS011;30569;51.252;9.830;2022-12-11T05:48:54;20.90;;;11.53;;
44832;SDS011;30569;51.252;9.830;2022-12-11T05:51:21;20.47;;;11.33;;
44832;SDS011;30569;51.252;9.830;2022-12-11T05:53:47;19.33;;;11.40;;
44832;SDS011;30569;51.252;9.830;2022-12-11T05:56:22;18.37;;;11.47;;
44832;SDS011;30569;51.252;9.830;2022-12-11T05:58:50;20.00;;;11.10;;
44832;SDS011;30569;51.252;9.830;2022-12-11T06:03:50;21.80;;;12.65;;
44832;SDS011;30569;51.252;9.830;2022-12-11T06:06:16;22.33;;;12.90;;
44832;SDS011;30569;51.252;9.830;2022-12-11T06:08:42;20.43;;;12.57;;
44832;SDS011;30569;51.252;9.830;2022-12-11T06:11:08;22.23;;;13.23;;
44832;SDS011;30569;51.252;9.830;2022-12-11T06:13:35;21.27;;;12.20;;
44832;SDS011;30569;51.252;9.830;2022-12-11T06:16:02;23.47;;;12.73;;
44832;SDS011;30569;51.252;9.830;2022-12-11T06:18:29;24.00;;;13.70;;
44832;SDS011;30569;51.252;9.830;2022-12-11T06:20:55;23.03;;;13.43;;
44832;SDS011;30569;51.252;9.830;2022-12-11T06:23:21;20.33;;;12.70;;
44832;SDS011;30569;51.252;9.830;2022-12-11T06:25:47;22.27;;;11.23;;
44832;SDS011;30569;51.252;9.830;2022-12-11T06:28:13;24.47;;;12.30;;
44832;SDS011;30569;51.252;9.830;2022-12-11T06:30:39;19.07;;;10.13;;
44832;SDS011;30569;51.252;9.830;2022-12-11T06:33:05;20.33;;;11.80;;
44832;SDS011;30569;51.252;9.830;2022-12-11T06:35:31;21.90;;;12.23;;
44832;SDS011;30569;51.252;9.830;2022-12-11T06:37:57;23.57;;;13.80;;
44832;SDS011;30569;51.252;9.830;2022-12-11T06:40:23;28.03;;;16.00;;
44832;SDS011;30569;51.252;9.830;2022-12-11T06:42:49;24.13;;;14.53;;
44832;SDS011;30569;51.252;9.830;2022-12-11T06:45:15;26.87;;;16.10;;
44832;SDS011;30569;51.252;9.830;2022-12-11T06:47:41;27.23;;;14.90;;
44832;SDS011;30569;51.252;9.830;2022-12-11T06:50:06;24.17;;;14.07;;
44832;SDS011;30569;51.252;9.830;2022-12-11T06:52:32;24.77;;;13.83;;
44832;SDS011;30569;51.252;9.830;2022-12-11T06:54:58;23.00;;;13.63;;
44832;SDS011;30569;51.252;9.830;2022-12-11T06:57:24;23.33;;;13.23;;
44832;SDS011;30569;51.252;9.830;2022-12-11T06:59:50;23.73;;;13.67;;
44832;SDS011;30569;51.252;9.830;2022-12-11T07:02:17;24.13;;;13.27;;
44832;SDS011;30569;51.252;9.830;2022-12-11T07:04:43;29.30;;;16.23;;
44832;SDS011;30569;51.252;9.830;2022-12-11T07:07:09;23.87;;;14.60;;
44832;SDS011;30569;51.252;9.830;2022-12-11T07:09:36;23.20;;;13.83;;
44832;SDS011;30569;51.252;9.830;2022-12-11T07:12:03;21.63;;;13.20;;
44832;SDS011;30569;51.252;9.830;2022-12-11T07:14:30;24.83;;;14.03;;
44832;SDS011;30569;51.252;9.830;2022-12-11T07:16:56;26.30;;;14.03;;
44832;SDS011;30569;51.252;9.830;2022-12-11T07:19:22;23.63;;;13.70;;
44832;SDS011;30569;51.252;9.830;2022-12-11T07:21:48;21.77;;;13.80;;
44832;SDS011;30569;51.252;9.830;2022-12-11T07:24:15;20.87;;;12.50;;
44832;SDS011;30569;51.252;9.830;2022-12-11T07:26:41;22.70;;;13.63;;
44832;SDS011;30569;51.252;9.830;2022-12-11T07:29:06;25.57;;;13.93;;
44832;SDS011;30569;51.252;9.830;2022-12-11T07:31:32;27.27;;;15.73;;
44832;SDS011;30569;51.252;9.830;2022-12-11T07:33:59;27.17;;;15.10;;
44832;SDS011;30569;51.252;9.830;2022-12-11T07:36:30;26.97;;;15.73;;
44832;SDS011;30569;51.252;9.830;2022-12-11T07:38:56;24.87;;;14.77;;
44832;SDS011;30569;51.252;9.830;2022-12-11T07:41:23;24.97;;;14.27;;
44832;SDS011;30569;51.252;9.830;2022-12-11T07:43:51;27.07;;;16.17;;
44832;SDS011;30569;51.252;9.830;2022-12-11T07:46:18;27.67;;;15.00;;
44832;SDS011;30569;51.252;9.830;2022-12-11T07:48:47;26.17;;;15.27;;
44832;SDS011;30569;51.252;9.830;2022-12-11T07:51:18;28.00;;;16.43;;
44832;SDS011;30569;51.252;9.830;2022-12-11T07:53:50;27.97;;;14.07;;
44832;SDS011;30569;51.252;9.830;2022-12-11T07:56:17;29.73;;;15.33;;
44832;SDS011;30569;51.252;9.830;2022-12-11T07:58:43;24.27;;;14.47;;
44832;SDS011;30569;51.252;9.830;2022-12-11T08:01:13;26.27;;;14.87;;
44832;SDS011;30569;51.252;9.830;2022-12-11T08:03:41;27.23;;;15.07;;
44832;SDS011;30569;51.252;9.830;2022-12-11T08:06:06;24.50;;;14.13;;
44832;SDS011;30569;51.252;9.830;2022-12-11T08:08:33;27.40;;;14.60;;
44832;SDS011;30569;51.252;9.830;2022-12-11T08:10:59;25.33;;;14.33;;
44832;SDS011;30569;51.252;9.830;2022-12-11T08:13:26;27.87;;;16.67;;
44832;SDS011;30569;51.252;9.830;2022-12-11T08:15:51;25.57;;;14.17;;
44832;SDS011;30569;51.252;9.830;2022-12-11T08:18:17;24.13;;;14.70;;
44832;SDS011;30569;51.252;9.830;2022-12-11T08:20:43;27.03;;;14.93;;
44832;SDS011;30569;51.252;9.830;2022-12-11T08:23:09;26.23;;;14.70;;
44832;SDS011;30569;51.252;9.830;2022-12-11T08:25:35;27.87;;;14.83;;
44832;SDS011;30569;51.252;9.830;2022-12-11T08:28:01;24.03;;;14.07;;
44832;SDS011;30569;51.252;9.830;2022-12-11T08:30:26;25.97;;;14.40;;
44832;SDS011;30569;51.252;9.830;2022-12-11T08:32:52;28.83;;;14.63;;
44832;SDS011;30569;51.252;9.830;2022-12-11T08:35:18;28.67;;;14.57;;
44832;SDS011;30569;51.252;9.830;2022-12-11T08:37:44;26.40;;;15.30;;
44832;SDS011;30569;51.252;9.830;2022-12-11T08:40:10;25.57;;;14.07;;
44832;SDS011;30569;51.252;9.830;2022-12-11T08:42:36;24.13;;;14.80;;
44832;SDS011;30569;51.252;9.830;2022-12-11T08:45:03;26.23;;;14.50;;
44832;SDS011;30569;51.252;9.830;2022-12-11T08:47:29;22.70;;;12.97;;
44832;SDS011;30569;51.252;9.830;2022-12-11T08:49:54;28.40;;;14.73;;
44832;SDS011;30569;51.252;9.830;2022-12-11T08:52:20;23.87;;;12.97;;
44832;SDS011;30569;51.252;9.830;2022-12-11T08:54:47;28.60;;;14.93;;
44832;SDS011;30569;51.252;9.830;2022-12-11T08:57:12;28.57;;;15.47;;
44832;SDS011;30569;51.252;9.830;2022-12-11T08:59:38;27.90;;;14.30;;
44832;SDS011;30569;51.252;9.830;2022-12-11T09:02:04;25.93;;;13.80;;
44832;SDS011;30569;51.252;9.830;2022-12-11T09:04:30;27.37;;;14.50;;
44832;SDS011;30569;51.252;9.830;2022-12-11T09:06:56;25.27;;;13.97;;
44832;SDS011;30569;51.252;9.830;2022-12-11T09:09:22;27.27;;;14.43;;
44832;SDS011;30569;51.252;9.830;2022-12-11T09:11:48;26.23;;;14.27;;
44832;SDS011;30569;51.252;9.830;2022-12-11T09:14:14;28.90;;;15.13;;
44832;SDS011;30569;51.252;9.830;2022-12-11T09:16:40;28.60;;;15.10;;
44832;SDS011;30569;51.252;9.830;2022-12-11T09:19:07;28.63;;;15.33;;
44832;SDS011;30569;51.252;9.830;2022-12-11T09:21:35;31.13;;;17.33;;
44832;SDS011;30569;51.252;9.830;2022-12-11T09:24:01;30.37;;;16.53;;
44832;SDS011;30569;51.252;9.830;2022-12-11T09:26:28;29.17;;;16.47;;
44832;SDS011;30569;51.252;9.830;2022-12-11T09:28:54;29.30;;;16.93;;
44832;SDS011;30569;51.252;9.830;2022-12-11T09:31:22;26.20;;;15.03;;
44832;SDS011;30569;51.252;9.830;2022-12-11T09:33:50;26.53;;;15.90;;
44832;SDS011;30569;51.252;9.830;2022-12-11T09:36:19;29.53;;;14.80;;
44832;SDS011;30569;51.252;9.830;2022-12-11T09:38:45;27.63;;;15.10;;
44832;SDS011;30569;51.252;9.830;2022-12-11T09:46:26;26.43;;;15.13;;
44832;SDS011;30569;51.252;9.830;2022-12-11T09:48:52;24.73;;;13.97;;
44832;SDS011;30569;51.252;9.830;2022-12-11T09:51:26;28.20;;;13.93;;
44832;SDS011;30569;51.252;9.830;2022-12-11T09:53:59;28.13;;;15.20;;
44832;SDS011;30569;51.252;9.830;2022-12-11T09:56:35;27.87;;;14.93;;
44832;SDS011;30569;51.252;9.830;2022-12-11T10:07:33;29.20;;;15.77;;
44832;SDS011;30569;51.252;9.830;2022-12-11T10:10:37;27.80;;;15.57;;
44832;SDS011;30569;51.252;9.830;2022-12-11T10:13:34;29.63;;;14.07;;
44832;SDS011;30569;51.252;9.830;2022-12-11T10:16:28;27.10;;;14.37;;
44832;SDS011;30569;51.252;9.830;2022-12-11T10:19:04;26.77;;;14.63;;
44832;SDS011;30569;51.252;9.830;2022-12-11T10:21:33;25.13;;;14.93;;
44832;SDS011;30569;51.252;9.830;2022-12-11T10:24:04;26.03;;;14.93;;
44832;SDS011;30569;51.252;9.830;2022-12-11T10:26:54;27.87;;;15.33;;
44832;SDS011;30569;51.252;9.830;2022-12-11T10:29:22;28.93;;;15.57;;
44832;SDS011;30569;51.252;9.830;2022-12-11T10:31:53;29.40;;;16.17;;
44832;SDS011;30569;51.252;9.830;2022-12-11T10:34:29;30.55;;;15.85;;
44832;SDS011;30569;51.252;9.830;2022-12-11T10:36:59;27.97;;;16.20;;
44832;SDS011;30569;51.252;9.830;2022-12-11T10:39:25;31.10;;;16.13;;
44832;SDS011;30569;51.252;9.830;2022-12-11T10:41:52;30.10;;;16.97;;
44832;SDS011;30569;51.252;9.830;2022-12-11T10:46:46;31.27;;;17.33;;
44832;SDS011;30569;51.252;9.830;2022-12-11T10:49:24;28.30;;;16.77;;
44832;SDS011;30569;51.252;9.830;2022-12-11T10:51:51;29.63;;;16.43;;
44832;SDS011;30569;51.252;9.830;2022-12-11T10:54:38;29.17;;;15.97;;
44832;SDS011;30569;51.252;9.830;2022-12-11T10:57:06;28.53;;;15.47;;
44832;SDS011;30569;51.252;9.830;2022-12-11T11:02:03;29.13;;;14.97;;
44832;SDS011;30569;51.252;9.830;2022-12-11T11:04:32;31.40;;;17.37;;
44832;SDS011;30569;51.252;9.830;2022-12-11T11:09:43;30.03;;;15.90;;
44832;SDS011;30569;51.252;9.830;2022-12-11T11:12:22;29.57;;;16.33;;
44832;SDS011;30569;51.252;9.830;2022-12-11T11:15:00;29.07;;;15.97;;
44832;SDS011;30569;51.252;9.830;2022-12-11T11:17:30;27.83;;;14.87;;
44832;SDS011;30569;51.252;9.830;2022-12-11T11:19:57;27.77;;;15.70;;
44832;SDS011;30569;51.252;9.830;2022-12-11T11:22:28;28.73;;;16.13;;
44832;SDS011;30569;51.252;9.830;2022-12-11T11:24:56;26.27;;;14.73;;
44832;SDS011;30569;51.252;9.830;2022-12-11T11:27:37;27.97;;;15.87;;
44832;SDS011;30569;51.252;9.830;2022-12-11T11:30:23;27.47;;;15.47;;
44832;SDS011;30569;51.252;9.830;2022-12-11T11:32:53;30.83;;;16.80;;
44832;SDS011;30569;51.252;9.830;2022-12-11T11:35:22;26.90;;;14.47;;
44832;SDS011;30569;51.252;9.830;2022-12-11T11:38:33;30.73;;;15.77;;
44832;SDS011;30569;51.252;9.830;2022-12-11T11:40:51;29.63;;;16.53;;
44832;SDS011;30569;51.252;9.830;2022-12-11T11:46:46;26.83;;;15.07;;
44832;SDS011;30569;51.252;9.830;2022-12-11T11:52:16;28.93;;;16.50;;
44832;SDS011;30569;51.252;9.830;2022-12-11T11:55:03;27.23;;;15.13;;
44832;SDS011;30569;51.252;9.830;2022-12-11T11:57:42;27.20;;;16.00;;
44832;SDS011;30569;51.252;9.830;2022-12-11T12:00:17;27.73;;;15.73;;
44832;SDS011;30569;51.252;9.830;2022-12-11T12:02:48;27.03;;;15.10;;
44832;SDS011;30569;51.252;9.830;2022-12-11T12:05:21;31.70;;;16.37;;
44832;SDS011;30569;51.252;9.830;2022-12-11T12:07:56;26.03;;;14.77;;
44832;SDS011;30569;51.252;9.830;2022-12-11T12:10:43;30.90;;;17.20;;
44832;SDS011;30569;51.252;9.830;2022-12-11T12:13:35;27.43;;;13.60;;
44832;SDS011;30569;51.252;9.830;2022-12-11T12:16:23;28.30;;;15.07;;
44832;SDS011;30569;51.252;9.830;2022-12-11T12:19:15;27.27;;;14.40;;
44832;SDS011;30569;51.252;9.830;2022-12-11T12:22:04;23.57;;;13.37;;
44832;SDS011;30569;51.252;9.830;2022-12-11T12:24:52;22.87;;;12.40;;
44832;SDS011;30569;51.252;9.830;2022-12-11T12:30:10;22.80;;;12.57;;
44832;SDS011;30569;51.252;9.830;2022-12-11T12:46:17;24.60;;;12.57;;
44832;SDS011;30569;51.252;9.830;2022-12-11T12:48:50;24.33;;;13.13;;
44832;SDS011;30569;51.252;9.830;2022-12-11T12:51:18;22.83;;;12.43;;
44832;SDS011;30569;51.252;9.830;2022-12-11T12:53:48;23.90;;;12.57;;
44832;SDS011;30569;51.252;9.830;2022-12-11T12:56:19;25.43;;;12.43;;
44832;SDS011;30569;51.252;9.830;2022-12-11T12:58:46;25.30;;;13.07;;
44832;SDS011;30569;51.252;9.830;2022-12-11T13:08:55;23.23;;;12.63;;
44832;SDS011;30569;51.252;9.830;2022-12-11T13:11:29;21.90;;;12.73;;
44832;SDS011;30569;51.252;9.830;2022-12-11T13:14:02;23.30;;;12.87;;
44832;SDS011;30569;51.252;9.830;2022-12-11T13:16:34;20.77;;;11.97;;
44832;SDS011;30569;51.252;9.830;2022-12-11T13:19:02;19.37;;;10.67;;
44832;SDS011;30569;51.252;9.830;2022-12-11T13:21:40;17.60;;;8.83;;
44832;SDS011;30569;51.252;9.830;2022-12-11T13:24:11;22.03;;;10.70;;
44832;SDS011;30569;51.252;9.830;2022-12-11T13:26:40;16.30;;;10.03;;
44832;SDS011;30569;51.252;9.830;2022-12-11T13:29:26;18.73;;;10.43;;
44832;SDS011;30569;51.252;9.830;2022-12-11T13:32:00;18.63;;;10.97;;
44832;SDS011;30569;51.252;9.830;2022-12-11T13:34:31;18.77;;;10.93;;
44832;SDS011;30569;51.252;9.830;2022-12-11T13:37:00;31.27;;;16.70;;
44832;SDS011;30569;51.252;9.830;2022-12-11T13:39:29;27.10;;;15.33;;
44832;SDS011;30569;51.252;9.830;2022-12-11T13:42:00;15.93;;;8.87;;
44832;SDS011;30569;51.252;9.830;2022-12-11T13:44:30;23.53;;;13.87;;
44832;SDS011;30569;51.252;9.830;2022-12-11T13:47:03;17.20;;;10.43;;
44832;SDS011;30569;51.252;9.830;2022-12-11T13:49:34;18.87;;;10.13;;
44832;SDS011;30569;51.252;9.830;2022-12-11T13:52:02;17.43;;;9.73;;
44832;SDS011;30569;51.252;9.830;2022-12-11T13:54:30;18.73;;;11.47;;
44832;SDS011;30569;51.252;9.830;2022-12-11T13:59:37;17.13;;;9.10;;
44832;SDS011;30569;51.252;9.830;2022-12-11T14:04:52;19.83;;;9.87;;
44832;SDS011;30569;51.252;9.830;2022-12-11T14:07:31;19.43;;;10.27;;
44832;SDS011;30569;51.252;9.830;2022-12-11T14:10:02;15.52;;;8.45;;
44832;SDS011;30569;51.252;9.830;2022-12-11T14:12:45;19.63;;;10.43;;
44832;SDS011;30569;51.252;9.830;2022-12-11T14:15:23;22.57;;;11.10;;
44832;SDS011;30569;51.252;9.830;2022-12-11T14:17:50;25.83;;;14.60;;
44832;SDS011;30569;51.252;9.830;2022-12-11T14:20:17;29.67;;;14.67;;
44832;SDS011;30569;51.252;9.830;2022-12-11T14:22:49;33.70;;;14.37;;
44832;SDS011;30569;51.252;9.830;2022-12-11T14:25:19;44.23;;;21.73;;
44832;SDS011;30569;51.252;9.830;2022-12-11T14:27:50;45.53;;;24.23;;
44832;SDS011;30569;51.252;9.830;2022-12-11T14:32:48;35.57;;;18.57;;
44832;SDS011;30569;51.252;9.830;2022-12-11T14:35:32;25.97;;;13.00;;
44832;SDS011;30569;51.252;9.830;2022-12-11T14:38:03;34.33;;;19.70;;
44832;SDS011;30569;51.252;9.830;2022-12-11T14:40:35;29.00;;;15.90;;
44832;SDS011;30569;51.252;9.830;2022-12-11T14:43:06;34.17;;;15.87;;
44832;SDS011;30569;51.252;9.830;2022-12-11T14:45:39;34.63;;;17.47;;
44832;SDS011;30569;51.252;9.830;2022-12-11T14:48:11;29.60;;;15.30;;
44832;SDS011;30569;51.252;9.830;2022-12-11T14:50:43;25.40;;;14.02;;
44832;SDS011;30569;51.252;9.830;2022-12-11T14:53:19;25.97;;;14.17;;
44832;SDS011;30569;51.252;9.830;2022-12-11T14:55:48;27.00;;;15.37;;
44832;SDS011;30569;51.252;9.830;2022-12-11T14:58:16;41.83;;;21.93;;
44832;SDS011;30569;51.252;9.830;2022-12-11T15:00:57;31.27;;;16.63;;
44832;SDS011;30569;51.252;9.830;2022-12-11T15:03:34;23.70;;;13.57;;
44832;SDS011;30569;51.252;9.830;2022-12-11T15:06:02;51.00;;;24.13;;
44832;SDS011;30569;51.252;9.830;2022-12-11T15:08:46;28.47;;;13.00;;
44832;SDS011;30569;51.252;9.830;2022-12-11T15:11:13;25.17;;;13.47;;
44832;SDS011;30569;51.252;9.830;2022-12-11T15:14:14;28.80;;;15.80;;
44832;SDS011;30569;51.252;9.830;2022-12-11T15:16:35;31.67;;;15.27;;
44832;SDS011;30569;51.252;9.830;2022-12-11T15:19:04;26.83;;;15.20;;
44832;SDS011;30569;51.252;9.830;2022-12-11T15:21:31;24.47;;;13.80;;
44832;SDS011;30569;51.252;9.830;2022-12-11T15:24:00;28.47;;;13.50;;
44832;SDS011;30569;51.252;9.830;2022-12-11T15:26:32;22.37;;;12.57;;
44832;SDS011;30569;51.252;9.830;2022-12-11T15:29:02;27.77;;;13.23;;
44832;SDS011;30569;51.252;9.830;2022-12-11T15:31:31;26.83;;;14.20;;
44832;SDS011;30569;51.252;9.830;2022-12-11T15:33:59;26.93;;;13.93;;
44832;SDS011;30569;51.252;9.830;2022-12-11T15:36:32;24.07;;;12.60;;
44832;SDS011;30569;51.252;9.830;2022-12-11T15:38:59;23.53;;;12.67;;
44832;SDS011;30569;51.252;9.830;2022-12-11T15:41:26;34.90;;;18.57;;
44832;SDS011;30569;51.252;9.830;2022-12-11T15:43:57;39.47;;;19.63;;
44832;SDS011;30569;51.252;9.830;2022-12-11T15:46:25;41.93;;;21.33;;
44832;SDS011;30569;51.252;9.830;2022-12-11T15:48:52;37.73;;;19.27;;
44832;SDS011;30569;51.252;9.830;2022-12-11T15:51:18;32.13;;;16.57;;
44832;SDS011;30569;51.252;9.830;2022-12-11T15:53:44;35.47;;;18.97;;
44832;SDS011;30569;51.252;9.830;2022-12-11T15:56:16;31.20;;;17.43;;
44832;SDS011;30569;51.252;9.830;2022-12-11T15:58:43;31.30;;;17.13;;
44832;SDS011;30569;51.252;9.830;2022-12-11T16:01:09;28.40;;;14.27;;
44832;SDS011;30569;51.252;9.830;2022-12-11T16:03:35;23.53;;;13.07;;
44832;SDS011;30569;51.252;9.830;2022-12-11T16:06:01;24.93;;;13.30;;
44832;SDS011;30569;51.252;9.830;2022-12-11T16:08:27;25.03;;;13.07;;
44832;SDS011;30569;51.252;9.830;2022-12-11T16:10:53;29.03;;;14.77;;
44832;SDS011;30569;51.252;9.830;2022-12-11T16:13:19;27.50;;;15.37;;
44832;SDS011;30569;51.252;9.830;2022-12-11T16:15:48;29.23;;;14.33;;
44832;SDS011;30569;51.252;9.830;2022-12-11T16:18:16;27.37;;;14.13;;
44832;SDS011;30569;51.252;9.830;2022-12-11T16:20:43;26.80;;;14.83;;
44832;SDS011;30569;51.252;9.830;2022-12-11T16:23:10;31.53;;;15.50;;
44832;SDS011;30569;51.252;9.830;2022-12-11T16:25:39;29.43;;;14.27;;
44832;SDS011;30569;51.252;9.830;2022-12-11T16:28:06;24.87;;;14.33;;
44832;SDS011;30569;51.252;9.830;2022-12-11T16:30:33;27.43;;;14.43;;
44832;SDS011;30569;51.252;9.830;2022-12-11T16:32:59;27.90;;;15.37;;
44832;SDS011;30569;51.252;9.830;2022-12-11T16:35:27;27.87;;;15.27;;
44832;SDS011;30569;51.252;9.830;2022-12-11T16:37:53;32.33;;;14.80;;
44832;SDS011;30569;51.252;9.830;2022-12-11T16:40:19;30.17;;;14.53;;
44832;SDS011;30569;51.252;9.830;2022-12-11T16:42:45;29.60;;;14.53;;
44832;SDS011;30569;51.252;9.830;2022-12-11T16:45:12;31.43;;;16.33;;
44832;SDS011;30569;51.252;9.830;2022-12-11T16:47:40;31.50;;;15.80;;
44832;SDS011;30569;51.252;9.830;2022-12-11T16:50:06;29.20;;;15.93;;
44832;SDS011;30569;51.252;9.830;2022-12-11T16:52:32;31.40;;;15.77;;
44832;SDS011;30569;51.252;9.830;2022-12-11T16:54:58;31.33;;;15.80;;
44832;SDS011;30569;51.252;9.830;2022-12-11T16:57:24;34.27;;;15.60;;
44832;SDS011;30569;51.252;9.830;2022-12-11T16:59:49;30.40;;;15.57;;
44832;SDS011;30569;51.252;9.830;2022-12-11T17:02:16;35.07;;;17.23;;
44832;SDS011;30569;51.252;9.830;2022-12-11T17:04:42;31.50;;;16.10;;
44832;SDS011;30569;51.252;9.830;2022-12-11T17:07:09;32.70;;;15.90;;
44832;SDS011;30569;51.252;9.830;2022-12-11T17:09:34;30.97;;;15.43;;
44832;SDS011;30569;51.252;9.830;2022-12-11T17:12:00;36.07;;;16.30;;
44832;SDS011;30569;51.252;9.830;2022-12-11T17:14:26;32.33;;;15.23;;
44832;SDS011;30569;51.252;9.830;2022-12-11T17:16:52;31.17;;;17.17;;
44832;SDS011;30569;51.252;9.830;2022-12-11T17:19:18;37.00;;;18.67;;
44832;SDS011;30569;51.252;9.830;2022-12-11T17:21:45;35.87;;;17.93;;
44832;SDS011;30569;51.252;9.830;2022-12-11T17:24:13;37.77;;;17.60;;
44832;SDS011;30569;51.252;9.830;2022-12-11T17:26:39;37.33;;;19.00;;
44832;SDS011;30569;51.252;9.830;2022-12-11T17:29:05;36.17;;;18.83;;
44832;SDS011;30569;51.252;9.830;2022-12-11T17:31:31;36.13;;;17.47;;
44832;SDS011;30569;51.252;9.830;2022-12-11T17:33:57;35.07;;;15.43;;
44832;SDS011;30569;51.252;9.830;2022-12-11T17:36:25;30.57;;;16.13;;
44832;SDS011;30569;51.252;9.830;2022-12-11T17:38:51;34.77;;;17.80;;
44832;SDS011;30569;51.252;9.830;2022-12-11T17:41:18;30.47;;;15.63;;
44832;SDS011;30569;51.252;9.830;2022-12-11T17:43:45;30.63;;;15.23;;
44832;SDS011;30569;51.252;9.830;2022-12-11T17:46:11;28.17;;;14.93;;
44832;SDS011;30569;51.252;9.830;2022-12-11T17:48:36;31.17;;;14.80;;
44832;SDS011;30569;51.252;9.830;2022-12-11T17:51:03;35.40;;;16.57;;
44832;SDS011;30569;51.252;9.830;2022-12-11T17:53:30;31.83;;;15.93;;
44832;SDS011;30569;51.252;9.830;2022-12-11T17:56:01;35.43;;;15.83;;
44832;SDS011;30569;51.252;9.830;2022-12-11T17:58:28;30.13;;;14.63;;
44832;SDS011;30569;51.252;9.830;2022-12-11T18:00:54;31.43;;;15.03;;
44832;SDS011;30569;51.252;9.830;2022-12-11T18:03:22;31.67;;;15.57;;
44832;SDS011;30569;51.252;9.830;2022-12-11T18:05:49;35.30;;;16.00;;
44832;SDS011;30569;51.252;9.830;2022-12-11T18:08:18;30.63;;;15.47;;
44832;SDS011;30569;51.252;9.830;2022-12-11T18:10:45;28.03;;;14.50;;
44832;SDS011;30569;51.252;9.830;2022-12-11T18:13:12;31.63;;;16.17;;
44832;SDS011;30569;51.252;9.830;2022-12-11T18:15:38;30.17;;;15.37;;
44832;SDS011;30569;51.252;9.830;2022-12-11T18:18:04;29.07;;;15.07;;
44832;SDS011;30569;51.252;9.830;2022-12-11T18:20:31;33.23;;;16.70;;
44832;SDS011;30569;51.252;9.830;2022-12-11T18:22:57;68.07;;;36.37;;
44832;SDS011;30569;51.252;9.830;2022-12-11T18:25:23;38.63;;;19.70;;
44832;SDS011;30569;51.252;9.830;2022-12-11T18:27:49;35.63;;;17.43;;
44832;SDS011;30569;51.252;9.830;2022-12-11T18:30:15;31.13;;;15.40;;
44832;SDS011;30569;51.252;9.830;2022-12-11T18:32:41;27.77;;;14.33;;
44832;SDS011;30569;51.252;9.830;2022-12-11T18:35:08;31.47;;;15.30;;
44832;SDS011;30569;51.252;9.830;2022-12-11T18:37:35;30.07;;;15.70;;
44832;SDS011;30569;51.252;9.830;2022-12-11T18:40:01;35.33;;;18.70;;
44832;SDS011;30569;51.252;9.830;2022-12-11T18:42:28;32.77;;;16.73;;
44832;SDS011;30569;51.252;9.830;2022-12-11T18:44:54;30.87;;;14.77;;
44832;SDS011;30569;51.252;9.830;2022-12-11T18:47:20;33.10;;;15.80;;
44832;SDS011;30569;51.252;9.830;2022-12-11T18:49:46;32.03;;;14.83;;
44832;SDS011;30569;51.252;9.830;2022-12-11T18:52:12;29.03;;;14.27;;
44832;SDS011;30569;51.252;9.830;2022-12-11T18:54:38;29.50;;;14.37;;
44832;SDS011;30569;51.252;9.830;2022-12-11T18:57:04;29.60;;;14.57;;
44832;SDS011;30569;51.252;9.830;2022-12-11T18:59:30;32.53;;;14.77;;
44832;SDS011;30569;51.252;9.830;2022-12-11T19:01:56;29.40;;;14.53;;
44832;SDS011;30569;51.252;9.830;2022-12-11T19:04:22;32.27;;;16.13;;
44832;SDS011;30569;51.252;9.830;2022-12-11T19:06:48;28.27;;;15.13;;
44832;SDS011;30569;51.252;9.830;2022-12-11T19:09:13;32.53;;;16.27;;
44832;SDS011;30569;51.252;9.830;2022-12-11T19:11:39;31.20;;;15.60;;
44832;SDS011;30569;51.252;9.830;2022-12-11T19:14:06;31.80;;;15.83;;
44832;SDS011;30569;51.252;9.830;2022-12-11T19:16:34;29.90;;;14.73;;
44832;SDS011;30569;51.252;9.830;2022-12-11T19:19:03;34.53;;;18.93;;
44832;SDS011;30569;51.252;9.830;2022-12-11T19:21:33;29.63;;;15.90;;
44832;SDS011;30569;51.252;9.830;2022-12-11T19:24:01;33.20;;;17.80;;
44832;SDS011;30569;51.252;9.830;2022-12-11T19:26:27;28.67;;;14.43;;
44832;SDS011;30569;51.252;9.830;2022-12-11T19:28:53;29.60;;;14.60;;
44832;SDS011;30569;51.252;9.830;2022-12-11T19:31:24;31.47;;;16.60;;
44832;SDS011;30569;51.252;9.830;2022-12-11T19:33:51;33.13;;;16.50;;
44832;SDS011;30569;51.252;9.830;2022-12-11T19:36:18;28.53;;;14.93;;
44832;SDS011;30569;51.252;9.830;2022-12-11T19:38:45;36.13;;;16.20;;
44832;SDS011;30569;51.252;9.830;2022-12-11T19:41:12;30.50;;;15.57;;
44832;SDS011;30569;51.252;9.830;2022-12-11T19:46:11;39.50;;;17.90;;
44832;SDS011;30569;51.252;9.830;2022-12-11T19:48:37;31.90;;;15.33;;
44832;SDS011;30569;51.252;9.830;2022-12-11T19:51:15;32.47;;;15.37;;
44832;SDS011;30569;51.252;9.830;2022-12-11T19:53:44;30.97;;;14.83;;
44832;SDS011;30569;51.252;9.830;2022-12-11T19:56:11;32.30;;;15.30;;
44832;SDS011;30569;51.252;9.830;2022-12-11T19:58:37;29.40;;;15.43;;
44832;SDS011;30569;51.252;9.830;2022-12-11T20:01:03;34.70;;;16.10;;
44832;SDS011;30569;51.252;9.830;2022-12-11T20:03:29;36.87;;;17.50;;
44832;SDS011;30569;51.252;9.830;2022-12-11T20:06:02;33.37;;;17.30;;
44832;SDS011;30569;51.252;9.830;2022-12-11T20:08:30;33.97;;;16.27;;
44832;SDS011;30569;51.252;9.830;2022-12-11T20:10:59;34.97;;;15.77;;
44832;SDS011;30569;51.252;9.830;2022-12-11T20:13:31;32.40;;;15.57;;
44832;SDS011;30569;51.252;9.830;2022-12-11T20:16:01;30.67;;;14.97;;
44832;SDS011;30569;51.252;9.830;2022-12-11T20:18:29;30.60;;;15.03;;
44832;SDS011;30569;51.252;9.830;2022-12-11T20:20:57;32.80;;;14.77;;
44832;SDS011;30569;51.252;9.830;2022-12-11T20:23:24;31.57;;;15.77;;
44832;SDS011;30569;51.252;9.830;2022-12-11T20:25:50;32.97;;;16.10;;
44832;SDS011;30569;51.252;9.830;2022-12-11T20:28:16;34.50;;;16.90;;
44832;SDS011;30569;51.252;9.830;2022-12-11T20:30:42;32.53;;;15.07;;
44832;SDS011;30569;51.252;9.830;2022-12-11T20:33:07;58.90;;;25.13;;
44832;SDS011;30569;51.252;9.830;2022-12-11T20:35:33;45.03;;;21.80;;
44832;SDS011;30569;51.252;9.830;2022-12-11T20:37:59;42.77;;;19.87;;